Terminal Aerodrome Forecast
Issued by NWS

Home | Current Version | Previous Version | Text Only | Print | Product List | Glossary On
Versions: 1 2 3 4 5 6 7 8 9 10 11 12 13 14 15 16 17 18 19 20 21 22 23 24
000
FTUS43 KIND 212300 CCA
TAFLAF
TAF COR
KLAF 212321Z 2200/2224 21005KT P6SM VCTS SCT035CB BKN150
      TEMPO 2200/2202 3SM TSRA BKN030CB
     FM220800 VRB02KT 3SM BR SCT006 BKN080
      TEMPO 2208/2212 1SM BR BKN006
     FM221400 26005KT P6SM BKN080
     FM222000 27008KT P6SM VCTS SCT035CB BKN080
      AMD LTD TO CLD VIS AND WIND 2201/2213=

USA.gov is the U.S. government's official web portal to all federal, state and local government web resources and services.